createdAt,value
2018-07-31T00:01:14.289Z,65.73
2018-07-31T00:03:45.061Z,64.80
2018-07-31T00:06:22.744Z,65.70
2018-07-31T00:08:56.129Z,66.37
2018-07-31T00:11:27.740Z,63.07
2018-07-31T00:13:57.688Z,65.13
2018-07-31T00:16:28.059Z,65.50
2018-07-31T00:18:58.110Z,65.63
2018-07-31T00:21:28.308Z,63.07
2018-07-31T00:23:58.284Z,62.53
2018-07-31T00:26:30.036Z,64.80
2018-07-31T00:29:00.156Z,64.10
2018-07-31T00:31:31.864Z,66.27
2018-07-31T00:34:03.600Z,65.57
2018-07-31T00:36:34.604Z,64.77
2018-07-31T00:39:06.325Z,63.70
2018-07-31T00:41:36.557Z,65.17
2018-07-31T00:44:07.229Z,66.27
2018-07-31T00:46:37.431Z,63.77
2018-07-31T00:49:07.618Z,64.80
2018-07-31T00:51:38.906Z,63.07
2018-07-31T00:54:10.041Z,66.90
2018-07-31T00:56:40.040Z,65.07
2018-07-31T00:59:10.761Z,63.60
2018-07-31T01:01:41.448Z,63.20
2018-07-31T01:04:11.567Z,63.70
2018-07-31T01:06:42.453Z,63.97
2018-07-31T01:09:13.810Z,63.73
2018-07-31T01:11:44.074Z,65.93
2018-07-31T01:14:14.079Z,63.27
2018-07-31T01:16:44.905Z,63.83
2018-07-31T01:19:15.396Z,62.80
2018-07-31T01:21:46.531Z,63.87
2018-07-31T01:24:16.781Z,60.73
2018-07-31T01:26:47.016Z,63.97
2018-07-31T01:29:18.472Z,64.27
2018-07-31T01:31:49.842Z,66.17
2018-07-31T01:34:22.450Z,66.80
2018-07-31T01:36:54.151Z,66.97
2018-07-31T01:39:26.419Z,65.23
2018-07-31T01:41:57.441Z,63.63
2018-07-31T01:44:29.364Z,62.70
2018-07-31T01:47:00.515Z,63.07
2018-07-31T01:49:31.499Z,62.30
2018-07-31T01:52:01.363Z,63.20
2018-07-31T01:55:37.401Z,61.30
2018-07-31T01:58:09.410Z,60.10
2018-07-31T02:00:40.814Z,61.40
2018-07-31T02:03:13.802Z,59.93
2018-07-31T02:05:45.708Z,64.30
2018-07-31T02:08:17.100Z,60.60
2018-07-31T02:10:52.485Z,62.43
2018-07-31T02:13:22.548Z,60.20
2018-07-31T02:15:53.667Z,62.03
2018-07-31T02:18:25.237Z,61.70
2018-07-31T02:20:55.631Z,62.07
2018-07-31T02:23:28.488Z,61.37
2018-07-31T02:25:58.658Z,62.20
2018-07-31T02:28:30.028Z,61.70
2018-07-31T02:31:00.222Z,62.70
2018-07-31T02:33:31.488Z,63.60
2018-07-31T02:36:01.729Z,62.10
2018-07-31T02:38:32.141Z,62.13
2018-07-31T02:41:04.282Z,62.37
2018-07-31T02:43:35.436Z,61.77
2018-07-31T02:46:06.856Z,65.80
2018-07-31T02:48:37.845Z,61.73
2018-07-31T02:51:09.940Z,61.37
2018-07-31T02:53:39.799Z,60.47
2018-07-31T02:56:10.021Z,63.17
2018-07-31T02:58:40.180Z,64.60
2018-07-31T03:01:11.211Z,102.07
2018-07-31T03:03:42.657Z,60.67
2018-07-31T03:06:14.225Z,60.33
2018-07-31T03:08:46.067Z,61.57
2018-07-31T03:11:16.814Z,61.93
2018-07-31T03:13:48.186Z,62.00
2018-07-31T03:16:19.959Z,62.97
2018-07-31T03:18:50.473Z,60.47
2018-07-31T03:21:28.189Z,60.77
2018-07-31T03:23:58.601Z,63.70
2018-07-31T03:26:29.089Z,62.67
2018-07-31T03:28:58.961Z,59.77
2018-07-31T03:31:30.413Z,61.57
2018-07-31T03:34:01.078Z,61.50
2018-07-31T03:36:32.459Z,62.93
2018-07-31T03:39:03.042Z,63.77
2018-07-31T03:41:34.511Z,60.97
2018-07-31T03:44:05.002Z,60.20
2018-07-31T03:46:36.032Z,62.23
2018-07-31T03:49:06.183Z,60.43
2018-07-31T03:51:36.946Z,61.17
2018-07-31T03:54:07.875Z,60.20
2018-07-31T03:56:37.891Z,61.17
2018-07-31T03:59:08.124Z,63.53
2018-07-31T04:01:38.735Z,63.03
2018-07-31T04:04:09.934Z,60.00
2018-07-31T04:06:40.180Z,64.33
2018-07-31T04:09:13.067Z,60.83
2018-07-31T04:11:43.746Z,62.73
2018-07-31T04:14:14.011Z,65.70
2018-07-31T04:16:44.116Z,60.43
2018-07-31T04:19:14.345Z,64.30
2018-07-31T04:21:45.607Z,63.33
2018-07-31T04:24:16.956Z,63.40
2018-07-31T04:26:47.101Z,65.43
2018-07-31T04:29:18.082Z,64.00
2018-07-31T04:31:48.117Z,64.83
2018-07-31T04:34:18.550Z,64.17
2018-07-31T04:36:48.534Z,61.67
2018-07-31T04:39:20.438Z,61.80
2018-07-31T04:41:50.715Z,59.47
2018-07-31T04:44:20.730Z,65.43
2018-07-31T04:46:51.063Z,64.10
2018-07-31T04:49:21.453Z,65.53
2018-07-31T04:51:52.214Z,62.90
2018-07-31T04:54:28.752Z,60.93
2018-07-31T04:56:59.724Z,62.80
2018-07-31T04:59:30.677Z,62.00
2018-07-31T05:02:00.803Z,61.03
2018-07-31T05:04:31.576Z,62.70
2018-07-31T05:07:02.170Z,60.47
2018-07-31T05:09:34.334Z,61.33
2018-07-31T05:12:06.636Z,60.37
2018-07-31T05:14:37.356Z,62.50
2018-07-31T05:17:07.803Z,58.00
2018-07-31T05:19:37.960Z,59.33
2018-07-31T05:22:08.256Z,58.97
2018-07-31T05:24:38.220Z,58.43
2018-07-31T05:27:09.764Z,60.23
2018-07-31T05:29:39.844Z,56.63
2018-07-31T05:32:12.751Z,59.07
2018-07-31T05:34:42.717Z,60.37
2018-07-31T05:37:13.940Z,60.77
2018-07-31T05:39:44.360Z,60.40
2018-07-31T05:42:15.155Z,57.93
2018-07-31T05:44:45.662Z,55.87
2018-07-31T05:47:15.579Z,61.70
2018-07-31T05:49:46.035Z,64.47
2018-07-31T05:52:16.176Z,71.80
2018-07-31T05:54:46.710Z,72.70
2018-07-31T05:57:16.892Z,66.90
2018-07-31T05:59:47.855Z,68.60
2018-07-31T06:02:18.032Z,64.33
2018-07-31T06:04:48.354Z,61.00
2018-07-31T06:07:18.707Z,60.93
2018-07-31T06:09:48.939Z,61.40
2018-07-31T06:12:19.064Z,58.20
2018-07-31T06:14:49.328Z,60.40
2018-07-31T06:17:19.331Z,57.93
2018-07-31T06:19:49.624Z,58.90
2018-07-31T06:22:20.396Z,61.87
2018-07-31T06:24:50.956Z,60.10
2018-07-31T06:27:21.590Z,60.57
2018-07-31T06:29:51.567Z,59.73
2018-07-31T06:32:22.291Z,61.60
2018-07-31T06:34:52.319Z,60.77
2018-07-31T06:37:22.449Z,62.70
2018-07-31T06:39:53.004Z,61.10
2018-07-31T06:42:22.992Z,60.73
2018-07-31T06:44:53.203Z,61.33
2018-07-31T06:47:23.601Z,61.80
2018-07-31T06:49:53.699Z,64.83
2018-07-31T06:52:23.895Z,61.60
2018-07-31T06:54:54.599Z,60.37
2018-07-31T06:57:24.522Z,60.13
2018-07-31T06:59:54.501Z,62.00
2018-07-31T07:02:25.255Z,62.50
2018-07-31T07:04:55.804Z,63.77
2018-07-31T07:07:26.114Z,62.70
2018-07-31T07:09:57.561Z,61.43
2018-07-31T07:12:28.099Z,61.23
2018-07-31T07:14:58.232Z,61.50
2018-07-31T07:17:28.267Z,61.33
2018-07-31T07:19:58.352Z,66.07
2018-07-31T07:22:28.785Z,61.07
2018-07-31T07:24:58.833Z,63.63
2018-07-31T07:27:28.728Z,62.77
2018-07-31T07:29:59.602Z,61.47
2018-07-31T07:32:29.692Z,63.37
2018-07-31T07:34:59.804Z,65.57
2018-07-31T07:37:30.480Z,62.20
2018-07-31T07:40:00.768Z,60.60
2018-07-31T07:42:30.837Z,61.13
2018-07-31T07:45:01.272Z,61.83
2018-07-31T07:47:31.590Z,63.60
2018-07-31T07:50:02.165Z,62.73
2018-07-31T07:52:33.053Z,63.77
2018-07-31T07:55:03.708Z,69.90
2018-07-31T07:57:34.603Z,63.83
2018-07-31T08:00:06.567Z,65.47
2018-07-31T08:02:36.961Z,64.83
2018-07-31T08:05:08.113Z,63.83
2018-07-31T08:07:38.601Z,63.43
2018-07-31T08:10:08.738Z,61.23
2018-07-31T08:12:39.106Z,63.27
2018-07-31T08:15:09.295Z,65.63
2018-07-31T08:17:39.384Z,62.00
2018-07-31T08:20:09.821Z,64.43
2018-07-31T08:22:40.277Z,64.40
2018-07-31T08:25:10.429Z,67.67
2018-07-31T08:27:41.276Z,68.40
2018-07-31T08:30:12.875Z,66.73
2018-07-31T08:32:42.945Z,65.70
2018-07-31T08:35:13.777Z,64.03
2018-07-31T08:37:44.132Z,64.47
2018-07-31T08:40:14.378Z,70.47
2018-07-31T08:42:44.361Z,66.70
2018-07-31T08:45:14.544Z,64.53
2018-07-31T08:47:44.616Z,61.77
2018-07-31T08:50:15.119Z,68.70
2018-07-31T08:52:45.339Z,62.87
2018-07-31T08:55:15.710Z,70.27
2018-07-31T08:57:45.968Z,72.57
2018-07-31T09:00:16.010Z,67.47
2018-07-31T09:02:46.213Z,64.40
2018-07-31T09:05:17.196Z,64.27
2018-07-31T09:07:47.489Z,64.60
2018-07-31T09:10:18.627Z,66.27
2018-07-31T09:12:49.193Z,61.37
2018-07-31T09:15:19.497Z,62.10
2018-07-31T09:17:49.619Z,63.27
2018-07-31T09:20:21.632Z,61.47
2018-07-31T09:22:52.623Z,65.03
2018-07-31T09:25:23.705Z,65.67
2018-07-31T09:27:53.998Z,67.27
2018-07-31T09:30:24.564Z,64.17
2018-07-31T09:32:59.989Z,64.87
2018-07-31T09:35:30.172Z,66.20
2018-07-31T09:38:01.109Z,66.43
2018-07-31T09:40:31.657Z,65.70
2018-07-31T09:43:01.709Z,65.50
2018-07-31T09:45:32.169Z,65.13
2018-07-31T09:48:02.242Z,63.73
2018-07-31T09:50:33.869Z,65.83
2018-07-31T09:53:03.923Z,67.53
2018-07-31T09:55:37.448Z,65.13
2018-07-31T09:58:07.128Z,65.87
2018-07-31T10:00:42.399Z,64.13
2018-07-31T10:03:12.335Z,65.70
2018-07-31T10:05:42.672Z,65.67
2018-07-31T10:08:18.077Z,63.67
2018-07-31T10:10:48.126Z,63.77
2018-07-31T10:13:24.565Z,67.87
2018-07-31T10:15:54.475Z,67.37
2018-07-31T10:18:24.466Z,66.20
2018-07-31T10:20:55.207Z,68.23
2018-07-31T10:23:26.883Z,65.43
2018-07-31T10:25:57.219Z,66.40
2018-07-31T10:28:27.357Z,68.43
2018-07-31T10:30:57.640Z,68.00
2018-07-31T10:33:27.574Z,65.50
2018-07-31T10:35:57.825Z,65.20
2018-07-31T10:38:28.220Z,67.87
2018-07-31T10:40:58.629Z,68.00
2018-07-31T10:43:29.859Z,68.60
2018-07-31T10:46:00.771Z,65.77
2018-07-31T10:48:31.369Z,68.27
2018-07-31T10:51:01.939Z,69.07
2018-07-31T10:53:31.808Z,68.57
2018-07-31T10:56:01.879Z,68.50
2018-07-31T10:58:32.639Z,69.57
2018-07-31T11:01:03.691Z,109.80
2018-07-31T11:03:34.431Z,67.00
2018-07-31T11:06:04.560Z,66.93
2018-07-31T11:08:34.979Z,70.60
2018-07-31T11:11:06.551Z,70.20
2018-07-31T11:13:37.920Z,70.00
2018-07-31T11:16:08.449Z,66.77
2018-07-31T11:18:38.463Z,66.37
2018-07-31T11:21:11.698Z,68.40
2018-07-31T11:23:42.500Z,73.67
2018-07-31T11:26:12.972Z,69.37
2018-07-31T11:28:44.300Z,66.93
2018-07-31T11:31:15.249Z,65.53
2018-07-31T11:33:46.081Z,67.67
2018-07-31T11:36:16.389Z,68.60
2018-07-31T11:38:46.719Z,68.43
2018-07-31T11:41:17.430Z,68.57
2018-07-31T11:43:47.559Z,68.93
2018-07-31T11:46:17.836Z,69.87
2018-07-31T11:48:49.730Z,68.60
2018-07-31T11:51:22.256Z,72.97
2018-07-31T11:53:52.813Z,69.53
2018-07-31T11:56:22.828Z,69.43
2018-07-31T11:58:54.104Z,69.53
2018-07-31T12:01:25.037Z,71.70
2018-07-31T12:03:55.365Z,71.30
2018-07-31T12:06:32.624Z,70.80
2018-07-31T12:09:03.016Z,68.77
2018-07-31T12:11:33.020Z,72.53
2018-07-31T12:14:03.388Z,69.00
2018-07-31T12:16:33.557Z,72.70
2018-07-31T12:19:04.049Z,71.90
2018-07-31T12:21:34.202Z,69.43
2018-07-31T12:24:04.221Z,69.33
2018-07-31T12:26:34.463Z,70.93
2018-07-31T12:29:04.615Z,70.33
2018-07-31T12:31:35.781Z,71.53
2018-07-31T12:34:06.813Z,70.00
2018-07-31T12:36:37.086Z,69.43
2018-07-31T12:39:11.247Z,67.60
2018-07-31T12:41:41.180Z,70.53
2018-07-31T12:44:11.285Z,70.23
2018-07-31T12:46:41.363Z,70.50
2018-07-31T12:49:11.699Z,70.17
2018-07-31T12:51:42.225Z,69.67
2018-07-31T12:54:12.332Z,69.50
2018-07-31T12:56:42.696Z,69.37
2018-07-31T12:59:13.322Z,72.07
2018-07-31T13:01:43.383Z,72.03
2018-07-31T13:04:16.480Z,71.83
2018-07-31T13:06:46.702Z,69.07
2018-07-31T13:09:17.089Z,70.43
2018-07-31T13:11:47.920Z,70.07
2018-07-31T13:14:19.212Z,72.07
2018-07-31T13:16:50.805Z,71.10
2018-07-31T13:19:21.054Z,71.53
2018-07-31T13:21:51.300Z,71.23
2018-07-31T13:24:21.710Z,76.50
2018-07-31T13:26:51.686Z,74.70
2018-07-31T13:29:22.756Z,72.43
2018-07-31T13:31:52.845Z,88.90
2018-07-31T13:34:23.058Z,74.33
2018-07-31T13:36:53.447Z,74.13
2018-07-31T13:39:23.351Z,77.97
2018-07-31T13:41:53.374Z,75.87
2018-07-31T13:44:23.587Z,69.30
2018-07-31T13:46:53.968Z,74.10
2018-07-31T13:49:23.933Z,74.60
2018-07-31T13:51:53.949Z,74.10
2018-07-31T13:54:24.086Z,76.57
2018-07-31T13:56:54.149Z,72.83
2018-07-31T13:59:24.505Z,73.00
2018-07-31T14:01:54.455Z,72.80
2018-07-31T14:04:25.145Z,73.83
2018-07-31T14:06:55.341Z,71.97
2018-07-31T14:09:26.942Z,74.83
2018-07-31T14:11:56.996Z,75.07
2018-07-31T14:14:27.535Z,75.87
2018-07-31T14:16:58.962Z,74.50
2018-07-31T14:19:29.243Z,73.97
2018-07-31T14:22:00.253Z,74.80
2018-07-31T14:24:31.373Z,74.73
2018-07-31T14:27:01.571Z,75.37
2018-07-31T14:29:31.895Z,74.63
2018-07-31T14:32:03.060Z,74.00
2018-07-31T14:34:33.519Z,74.77
2018-07-31T14:37:04.169Z,76.37
2018-07-31T14:39:34.285Z,74.33
2018-07-31T14:42:06.789Z,76.77
2018-07-31T14:44:38.010Z,78.53
2018-07-31T14:47:08.119Z,76.85
2018-07-31T14:49:38.245Z,77.77
2018-07-31T14:52:09.321Z,79.45
2018-07-31T14:54:39.361Z,77.85
2018-07-31T14:57:10.120Z,80.00
2018-07-31T14:59:40.329Z,77.37
2018-07-31T15:02:10.780Z,78.00
2018-07-31T15:04:40.836Z,79.10
2018-07-31T15:07:10.843Z,77.42
2018-07-31T15:09:40.970Z,76.37
2018-07-31T15:12:11.259Z,78.15
2018-07-31T15:14:41.882Z,80.05
2018-07-31T15:17:12.524Z,78.25
2018-07-31T15:19:42.990Z,78.87
2018-07-31T15:22:14.074Z,77.55
2018-07-31T15:24:44.149Z,78.78
2018-07-31T15:27:14.394Z,79.85
2018-07-31T15:29:44.605Z,79.07
2018-07-31T15:32:15.545Z,79.72
2018-07-31T15:34:46.867Z,79.37
2018-07-31T15:37:17.340Z,79.45
2018-07-31T15:39:47.482Z,77.95
2018-07-31T15:42:17.719Z,77.27
2018-07-31T15:44:48.699Z,80.05
2018-07-31T15:47:18.859Z,79.00
2018-07-31T15:49:49.634Z,76.47
2018-07-31T15:52:20.168Z,77.20
2018-07-31T15:54:50.523Z,78.87
2018-07-31T15:57:20.961Z,76.77
2018-07-31T15:59:51.491Z,79.90
2018-07-31T16:02:21.608Z,77.27
2018-07-31T16:04:51.767Z,77.77
2018-07-31T16:07:21.981Z,78.63
2018-07-31T16:09:52.377Z,80.17
2018-07-31T16:12:22.535Z,81.78
2018-07-31T16:14:52.581Z,87.17
2018-07-31T16:17:22.590Z,82.97
2018-07-31T16:19:52.930Z,83.40
2018-07-31T16:22:24.700Z,80.17
2018-07-31T16:24:55.069Z,80.00
2018-07-31T16:27:25.844Z,82.25
2018-07-31T16:29:56.415Z,78.60
2018-07-31T16:32:27.841Z,77.55
2018-07-31T16:34:58.075Z,80.30
2018-07-31T16:37:28.632Z,87.70
2018-07-31T16:39:59.012Z,90.07
2018-07-31T16:42:29.271Z,85.97
2018-07-31T16:44:59.461Z,83.67
2018-07-31T16:47:29.457Z,78.87
2018-07-31T16:50:01.755Z,79.27
2018-07-31T16:52:31.684Z,81.42
2018-07-31T16:55:03.102Z,82.88
2018-07-31T16:57:33.383Z,81.22
2018-07-31T17:00:03.628Z,82.00
2018-07-31T17:02:34.797Z,78.95
2018-07-31T17:05:05.562Z,84.10
2018-07-31T17:07:35.578Z,85.10
2018-07-31T17:10:06.502Z,105.90
2018-07-31T17:12:36.716Z,87.03
2018-07-31T17:15:08.209Z,80.67
2018-07-31T17:17:38.784Z,79.43
2018-07-31T17:20:09.354Z,79.70
2018-07-31T17:22:41.960Z,77.73
2018-07-31T17:25:12.272Z,75.53
2018-07-31T17:27:42.139Z,77.13
2018-07-31T17:30:12.216Z,75.50
2018-07-31T17:32:42.330Z,80.17
2018-07-31T17:35:13.257Z,77.73
2018-07-31T17:37:44.643Z,79.10
2018-07-31T17:40:14.942Z,74.90
2018-07-31T17:42:45.216Z,75.53
2018-07-31T17:45:17.921Z,79.23
2018-07-31T17:47:48.793Z,79.90
2018-07-31T17:50:22.299Z,81.17
2018-07-31T17:52:52.629Z,77.07
2018-07-31T17:55:22.620Z,77.77
2018-07-31T17:57:52.868Z,77.70
2018-07-31T18:00:23.046Z,83.20
2018-07-31T18:02:52.961Z,80.57
2018-07-31T18:05:22.960Z,79.57
2018-07-31T18:07:53.232Z,79.73
2018-07-31T18:10:24.512Z,81.13
2018-07-31T18:12:54.900Z,77.77
2018-07-31T18:15:25.095Z,78.13
2018-07-31T18:17:55.975Z,85.27
2018-07-31T18:20:26.745Z,78.20
2018-07-31T18:22:57.150Z,77.50
2018-07-31T18:25:27.332Z,77.97
2018-07-31T18:27:57.720Z,78.60
2018-07-31T18:30:27.865Z,81.27
2018-07-31T18:32:59.931Z,80.33
2018-07-31T18:35:30.851Z,79.33
2018-07-31T18:38:01.188Z,76.90
2018-07-31T18:40:31.345Z,78.63
2018-07-31T18:43:01.435Z,77.87
2018-07-31T18:45:32.228Z,81.00
2018-07-31T18:48:02.145Z,76.70
2018-07-31T18:50:33.589Z,75.07
2018-07-31T18:53:04.748Z,75.37
2018-07-31T18:55:35.815Z,76.20
2018-07-31T18:58:07.399Z,75.50
2018-07-31T19:00:37.777Z,145.13
2018-07-31T19:03:08.595Z,73.97
2018-07-31T19:05:38.674Z,80.30
2018-07-31T19:08:09.003Z,75.20
2018-07-31T19:10:39.312Z,77.03
2018-07-31T19:13:10.343Z,76.17
2018-07-31T19:15:40.781Z,73.93
2018-07-31T19:18:12.258Z,74.50
2018-07-31T19:20:42.483Z,73.70
2018-07-31T19:23:13.018Z,73.93
2018-07-31T19:25:43.481Z,74.40
2018-07-31T19:28:14.110Z,76.60
2018-07-31T19:30:45.132Z,74.90
2018-07-31T19:33:15.238Z,72.40
2018-07-31T19:35:45.594Z,71.80
2018-07-31T19:38:15.925Z,73.57
2018-07-31T19:40:46.959Z,78.20
2018-07-31T19:43:17.365Z,72.20
2018-07-31T19:45:48.310Z,72.73
2018-07-31T19:48:19.726Z,71.17
2018-07-31T19:50:51.004Z,71.33
2018-07-31T19:53:21.619Z,74.27
2018-07-31T19:55:52.594Z,69.70
2018-07-31T19:58:22.572Z,71.97
2018-07-31T20:00:52.881Z,74.63
2018-07-31T20:03:23.001Z,70.80
2018-07-31T20:05:53.048Z,72.77
2018-07-31T20:08:24.123Z,68.80
2018-07-31T20:10:54.566Z,70.13
2018-07-31T20:13:24.801Z,68.43
2018-07-31T20:15:55.493Z,68.73
2018-07-31T20:18:25.681Z,66.97
2018-07-31T20:20:57.403Z,71.17
2018-07-31T20:23:27.459Z,70.50
2018-07-31T20:25:57.595Z,67.40
2018-07-31T20:28:28.704Z,70.67
2018-07-31T20:30:59.575Z,68.97
2018-07-31T20:33:30.595Z,68.97
2018-07-31T20:36:01.250Z,71.33
2018-07-31T20:38:31.282Z,66.87
2018-07-31T20:41:01.056Z,72.23
2018-07-31T20:43:31.150Z,67.77
2018-07-31T20:46:03.286Z,66.30
2018-07-31T20:48:33.340Z,71.30
2018-07-31T20:51:03.650Z,68.27
2018-07-31T20:53:33.755Z,69.27
2018-07-31T20:56:08.133Z,67.23
2018-07-31T20:58:39.149Z,66.33
2018-07-31T21:01:10.122Z,71.10
2018-07-31T21:03:40.814Z,69.63
2018-07-31T21:06:12.088Z,67.93
2018-07-31T21:08:44.864Z,68.40
2018-07-31T21:11:14.955Z,70.50
2018-07-31T21:13:45.098Z,66.87
2018-07-31T21:16:15.142Z,72.23
2018-07-31T21:18:45.766Z,70.27
2018-07-31T21:21:17.195Z,67.17
2018-07-31T21:23:47.433Z,66.43
2018-07-31T21:26:17.689Z,66.13
2018-07-31T21:28:48.683Z,67.53
2018-07-31T21:31:18.872Z,65.33
2018-07-31T21:33:48.888Z,68.33
2018-07-31T21:36:20.764Z,66.77
2018-07-31T21:38:50.820Z,65.70
2018-07-31T21:41:21.059Z,65.60
2018-07-31T21:43:51.410Z,67.50
2018-07-31T21:46:21.835Z,65.10
2018-07-31T21:48:53.054Z,67.93
2018-07-31T21:51:24.049Z,62.93
2018-07-31T21:53:53.997Z,64.40
2018-07-31T21:56:24.176Z,69.13
2018-07-31T21:58:54.199Z,66.27
2018-07-31T22:01:24.421Z,64.27
2018-07-31T22:03:54.923Z,66.30
2018-07-31T22:06:25.444Z,64.03
2018-07-31T22:08:55.698Z,66.87
2018-07-31T22:11:25.926Z,69.43
2018-07-31T22:13:56.193Z,63.80
2018-07-31T22:16:26.576Z,67.50
2018-07-31T22:18:56.810Z,64.07
2018-07-31T22:21:26.889Z,66.07
2018-07-31T22:23:57.376Z,64.90
2018-07-31T22:26:27.723Z,67.27
2018-07-31T22:28:57.780Z,66.80
2018-07-31T22:31:27.737Z,66.87
2018-07-31T22:33:58.720Z,65.23
2018-07-31T22:36:29.534Z,62.67
2018-07-31T22:38:59.733Z,68.27
2018-07-31T22:41:29.988Z,64.77
2018-07-31T22:44:00.041Z,65.37
2018-07-31T22:46:30.284Z,65.43
2018-07-31T22:49:00.631Z,63.53
2018-07-31T22:51:30.648Z,65.57
2018-07-31T22:54:01.213Z,70.40
2018-07-31T22:56:31.473Z,63.83
2018-07-31T22:59:01.619Z,65.13
2018-07-31T23:01:31.952Z,70.33
2018-07-31T23:04:02.508Z,63.50
2018-07-31T23:06:32.645Z,64.90
2018-07-31T23:09:03.105Z,65.50
2018-07-31T23:11:33.124Z,64.23
2018-07-31T23:14:05.532Z,62.03
2018-07-31T23:16:36.719Z,62.67
2018-07-31T23:19:07.104Z,65.20
2018-07-31T23:21:37.545Z,63.97
2018-07-31T23:24:07.705Z,62.23
2018-07-31T23:26:37.896Z,65.33
2018-07-31T23:29:08.318Z,63.53
2018-07-31T23:42:48.491Z,62.93
2018-07-31T23:45:19.293Z,65.80
2018-07-31T23:47:56.070Z,64.07
2018-07-31T23:50:26.322Z,66.67
2018-07-31T23:52:56.414Z,62.80
2018-07-31T23:55:26.511Z,63.13
2018-07-31T23:57:56.681Z,64.20
